createdAt,value
2018-05-09T00:00:21.530Z,4.90
2018-05-09T00:02:47.803Z,5.43
2018-05-09T00:05:14.011Z,5.40
2018-05-09T00:07:40.313Z,5.20
2018-05-09T00:10:07.295Z,5.73
2018-05-09T00:12:33.613Z,5.03
2018-05-09T00:15:00.575Z,5.30
2018-05-09T00:17:27.277Z,5.00
2018-05-09T00:19:53.544Z,5.10
2018-05-09T00:22:20.567Z,4.97
2018-05-09T00:24:46.845Z,5.60
2018-05-09T00:27:13.118Z,5.43
2018-05-09T00:29:39.350Z,6.10
2018-05-09T00:32:05.633Z,5.53
2018-05-09T00:34:32.271Z,5.33
2018-05-09T00:36:59.273Z,5.97
2018-05-09T00:39:25.585Z,6.10
2018-05-09T00:41:51.823Z,5.80
2018-05-09T00:44:18.067Z,5.87
2018-05-09T00:46:44.305Z,5.67
2018-05-09T00:49:10.574Z,5.97
2018-05-09T00:51:36.815Z,4.97
2018-05-09T00:54:15.440Z,5.10
2018-05-09T00:56:41.641Z,4.97
2018-05-09T00:59:07.883Z,5.13
2018-05-09T01:01:34.125Z,5.33
2018-05-09T01:04:00.365Z,5.30
2018-05-09T01:06:27.356Z,5.47
2018-05-09T01:08:54.418Z,5.60
2018-05-09T01:11:21.441Z,5.90
2018-05-09T01:13:47.741Z,6.40
2018-05-09T01:16:14.127Z,5.60
2018-05-09T01:18:40.507Z,5.70
2018-05-09T01:21:07.509Z,6.00
2018-05-09T01:23:33.771Z,6.10
2018-05-09T01:26:00.760Z,6.13
2018-05-09T01:28:27.018Z,6.43
2018-05-09T01:30:53.291Z,6.47
2018-05-09T01:33:28.351Z,6.23
2018-05-09T01:35:55.041Z,6.70
2018-05-09T01:38:31.659Z,6.63
2018-05-09T01:40:57.926Z,6.47
2018-05-09T01:43:24.563Z,6.33
2018-05-09T01:45:50.867Z,6.37
2018-05-09T01:48:17.852Z,6.63
2018-05-09T01:50:44.077Z,6.57
2018-05-09T01:53:10.353Z,6.90
2018-05-09T01:55:37.368Z,7.00
2018-05-09T01:58:03.708Z,6.80
2018-05-09T02:00:30.323Z,6.63
2018-05-09T02:02:56.952Z,6.80
2018-05-09T02:05:23.197Z,6.93
2018-05-09T02:07:50.197Z,7.20
2018-05-09T02:10:16.432Z,6.37
2018-05-09T02:12:42.716Z,7.17
2018-05-09T02:15:08.993Z,6.77
2018-05-09T02:17:35.279Z,7.33
2018-05-09T02:20:02.326Z,6.43
2018-05-09T02:22:28.561Z,7.07
2018-05-09T02:24:54.846Z,6.93
2018-05-09T02:27:21.123Z,7.30
2018-05-09T02:29:47.431Z,6.97
2018-05-09T02:32:13.719Z,7.17
2018-05-09T02:34:39.988Z,7.33
2018-05-09T02:37:06.983Z,7.93
2018-05-09T02:39:33.665Z,8.70
2018-05-09T02:41:59.870Z,16.90
2018-05-09T02:44:26.123Z,9.33
2018-05-09T02:46:53.117Z,8.07
2018-05-09T02:49:19.353Z,8.37
2018-05-09T02:51:45.609Z,7.90
2018-05-09T02:54:12.218Z,8.03
2018-05-09T02:56:39.219Z,7.63
2018-05-09T02:59:05.435Z,7.80
2018-05-09T03:01:32.456Z,7.43
2018-05-09T03:03:59.444Z,8.20
2018-05-09T03:06:25.755Z,8.00
2018-05-09T03:08:52.019Z,8.00
2018-05-09T03:11:18.319Z,7.60
2018-05-09T03:13:45.322Z,6.00
2018-05-09T03:16:12.002Z,6.50
2018-05-09T03:18:38.276Z,5.70
2018-05-09T03:21:04.502Z,5.93
2018-05-09T03:23:30.971Z,6.43
2018-05-09T03:25:57.188Z,6.90
2018-05-09T03:28:23.471Z,6.93
2018-05-09T03:30:49.707Z,7.10
2018-05-09T03:33:15.961Z,7.80
2018-05-09T03:35:42.912Z,7.53
2018-05-09T03:38:09.893Z,7.07
2018-05-09T03:40:36.097Z,6.67
2018-05-09T03:43:02.299Z,7.00
2018-05-09T03:45:28.587Z,6.60
2018-05-09T03:47:54.828Z,6.77
2018-05-09T03:50:21.147Z,7.60
2018-05-09T03:52:47.751Z,6.83
2018-05-09T03:55:13.989Z,7.20
2018-05-09T03:57:40.229Z,6.90
2018-05-09T04:00:06.529Z,7.13
2018-05-09T04:02:45.272Z,6.60
2018-05-09T04:05:23.648Z,7.47
2018-05-09T04:08:02.469Z,7.93
2018-05-09T04:10:28.745Z,9.67
2018-05-09T04:12:55.367Z,9.90
2018-05-09T04:15:22.057Z,9.43
2018-05-09T04:17:48.329Z,12.53
2018-05-09T04:20:14.622Z,13.47
2018-05-09T04:22:40.872Z,13.53
2018-05-09T04:25:07.924Z,12.00
2018-05-09T04:27:34.189Z,11.80
2018-05-09T04:30:00.444Z,9.37
2018-05-09T04:32:27.459Z,8.80
2018-05-09T04:34:54.489Z,8.03
2018-05-09T04:37:20.793Z,7.90
2018-05-09T04:39:47.461Z,7.60
2018-05-09T04:42:14.105Z,7.93
2018-05-09T04:44:40.360Z,8.10
2018-05-09T04:47:06.672Z,9.27
2018-05-09T04:49:33.012Z,9.40
2018-05-09T04:51:59.292Z,9.60
2018-05-09T04:54:26.414Z,9.63
2018-05-09T04:56:52.683Z,8.50
2018-05-09T04:59:19.004Z,9.13
2018-05-09T05:01:45.262Z,7.83
2018-05-09T05:04:11.913Z,8.33
2018-05-09T05:06:38.161Z,8.03
2018-05-09T05:09:04.438Z,6.70
2018-05-09T05:11:30.716Z,6.90
2018-05-09T05:13:57.082Z,6.60
2018-05-09T05:16:23.720Z,7.63
2018-05-09T05:18:50.064Z,7.43
2018-05-09T05:21:16.247Z,7.87
2018-05-09T05:23:42.918Z,7.37
2018-05-09T05:26:09.176Z,7.77
2018-05-09T05:28:35.899Z,8.30
2018-05-09T05:31:02.968Z,8.03
2018-05-09T05:33:29.993Z,7.70
2018-05-09T05:35:56.678Z,7.93
2018-05-09T05:38:22.977Z,7.53
2018-05-09T05:40:50.012Z,7.17
2018-05-09T05:43:16.659Z,8.30
2018-05-09T05:45:42.952Z,8.50
2018-05-09T05:48:09.210Z,8.70
2018-05-09T05:50:35.904Z,8.47
2018-05-09T05:53:02.942Z,7.37
2018-05-09T05:55:29.212Z,5.40
2018-05-09T05:57:55.460Z,6.30
2018-05-09T06:00:21.764Z,6.03
2018-05-09T06:02:48.760Z,5.63
2018-05-09T06:05:15.038Z,6.60
2018-05-09T06:07:42.130Z,5.23
2018-05-09T06:10:08.380Z,4.93
2018-05-09T06:12:35.114Z,5.73
2018-05-09T06:15:01.500Z,5.20
2018-05-09T06:17:27.749Z,4.33
2018-05-09T06:19:54.145Z,5.17
2018-05-09T06:22:20.479Z,4.30
2018-05-09T06:24:46.786Z,4.83
2018-05-09T06:27:13.496Z,5.20
2018-05-09T06:29:40.568Z,4.50
2018-05-09T06:32:07.624Z,4.50
2018-05-09T06:34:34.753Z,4.77
2018-05-09T06:37:01.051Z,4.10
2018-05-09T06:39:27.353Z,4.50
2018-05-09T06:41:54.379Z,4.13
2018-05-09T06:44:20.655Z,4.00
2018-05-09T06:46:46.958Z,3.90
2018-05-09T06:49:13.230Z,3.60
2018-05-09T06:51:40.272Z,4.00
2018-05-09T06:54:07.309Z,3.70
2018-05-09T06:56:33.660Z,4.37
2018-05-09T06:59:00.741Z,4.33
2018-05-09T07:01:27.748Z,4.13
2018-05-09T07:03:54.030Z,4.73
2018-05-09T07:06:20.532Z,4.60
2018-05-09T07:08:46.864Z,4.33
2018-05-09T07:11:13.120Z,4.00
2018-05-09T07:13:40.353Z,4.23
2018-05-09T07:16:06.749Z,4.20
2018-05-09T07:18:33.064Z,4.33
2018-05-09T07:21:00.068Z,3.90
2018-05-09T07:23:26.390Z,4.43
2018-05-09T07:25:52.663Z,4.27
2018-05-09T07:28:19.008Z,3.97
2018-05-09T07:30:46.025Z,4.30
2018-05-09T07:33:12.308Z,4.37
2018-05-09T07:35:39.303Z,3.60
2018-05-09T07:38:05.985Z,3.87
2018-05-09T07:40:32.316Z,3.87
2018-05-09T07:42:59.273Z,4.07
2018-05-09T07:45:25.595Z,3.93
2018-05-09T07:47:51.964Z,3.83
2018-05-09T07:50:18.228Z,4.50
2018-05-09T07:52:44.884Z,3.97
2018-05-09T07:55:11.219Z,3.90
2018-05-09T07:57:37.461Z,3.97
2018-05-09T08:00:03.793Z,3.47
2018-05-09T08:02:30.078Z,3.57
2018-05-09T08:04:56.549Z,3.90
2018-05-09T08:07:25.548Z,3.80
2018-05-09T08:09:51.988Z,4.97
2018-05-09T08:12:19.029Z,3.37
2018-05-09T08:14:46.071Z,3.90
2018-05-09T08:17:12.341Z,3.50
2018-05-09T08:19:38.635Z,3.90
2018-05-09T08:22:04.966Z,3.50
2018-05-09T08:24:31.210Z,3.20
2018-05-09T08:26:57.555Z,3.20
2018-05-09T08:29:23.795Z,2.70
2018-05-09T08:31:50.850Z,3.27
2018-05-09T08:34:17.121Z,3.00
2018-05-09T08:36:43.507Z,3.10
2018-05-09T08:39:10.425Z,3.03
2018-05-09T08:41:36.716Z,2.80
2018-05-09T08:44:03.906Z,3.27
2018-05-09T08:46:30.010Z,3.40
2018-05-09T08:48:56.284Z,2.80
2018-05-09T08:51:22.627Z,3.03
2018-05-09T08:53:48.910Z,2.67
2018-05-09T08:56:15.917Z,2.70
2018-05-09T08:58:42.245Z,3.03
2018-05-09T09:01:08.502Z,3.67
2018-05-09T09:03:34.830Z,3.07
2018-05-09T09:06:01.072Z,3.47
2018-05-09T09:08:28.330Z,3.87
2018-05-09T09:10:54.542Z,3.70
2018-05-09T09:13:20.872Z,3.60
2018-05-09T09:15:47.114Z,3.37
2018-05-09T09:18:13.356Z,3.07
2018-05-09T09:20:39.627Z,3.20
2018-05-09T09:23:05.880Z,3.80
2018-05-09T09:25:32.163Z,3.40
2018-05-09T09:27:58.417Z,3.43
2018-05-09T09:30:24.767Z,3.40
2018-05-09T09:32:51.383Z,3.50
2018-05-09T09:35:17.626Z,3.10
2018-05-09T09:37:43.878Z,3.13
2018-05-09T09:40:10.180Z,3.20
2018-05-09T09:42:36.480Z,3.40
2018-05-09T09:45:03.547Z,3.20
2018-05-09T09:47:30.516Z,3.40
2018-05-09T09:49:56.807Z,3.10
2018-05-09T09:52:23.095Z,3.43
2018-05-09T09:54:49.391Z,2.90
2018-05-09T09:57:15.698Z,3.33
2018-05-09T09:59:41.961Z,3.17
2018-05-09T10:02:08.225Z,3.13
2018-05-09T10:04:35.216Z,3.10
2018-05-09T10:07:01.477Z,3.07
2018-05-09T10:09:27.739Z,3.20
2018-05-09T10:11:54.756Z,3.10
2018-05-09T10:14:21.836Z,3.20
2018-05-09T10:16:48.111Z,3.00
2018-05-09T10:19:14.401Z,2.90
2018-05-09T10:21:40.704Z,3.60
2018-05-09T10:24:06.964Z,2.80
2018-05-09T10:26:33.610Z,3.57
2018-05-09T10:28:59.875Z,3.77
2018-05-09T10:31:26.957Z,3.37
2018-05-09T10:33:53.605Z,3.57
2018-05-09T10:36:20.612Z,3.33
2018-05-09T10:38:46.875Z,3.90
2018-05-09T10:41:13.911Z,3.53
2018-05-09T10:43:40.190Z,3.43
2018-05-09T10:46:06.446Z,3.47
2018-05-09T10:48:33.012Z,3.50
2018-05-09T10:50:59.532Z,3.40
2018-05-09T10:53:25.882Z,3.27
2018-05-09T10:55:52.142Z,2.90
2018-05-09T10:58:18.402Z,3.47
2018-05-09T11:00:44.693Z,2.77
2018-05-09T11:03:10.986Z,2.90
2018-05-09T11:05:37.226Z,3.40
2018-05-09T11:08:03.692Z,2.60
2018-05-09T11:10:30.188Z,2.90
2018-05-09T11:12:56.409Z,3.20
2018-05-09T11:15:23.400Z,2.70
2018-05-09T11:17:49.685Z,2.40
2018-05-09T11:20:15.989Z,3.83
2018-05-09T11:22:42.302Z,4.40
2018-05-09T11:25:08.549Z,4.30
2018-05-09T11:27:34.861Z,3.07
2018-05-09T11:30:01.922Z,4.33
2018-05-09T11:32:28.205Z,3.00
2018-05-09T11:34:54.472Z,4.20
2018-05-09T11:37:21.436Z,3.00
2018-05-09T11:39:48.471Z,3.80
2018-05-09T11:42:15.587Z,3.13
2018-05-09T11:44:41.891Z,2.37
2018-05-09T11:47:08.116Z,2.60
2018-05-09T11:49:34.436Z,2.77
2018-05-09T11:52:01.500Z,2.67
2018-05-09T11:54:28.558Z,2.87
2018-05-09T11:56:55.176Z,3.00
2018-05-09T11:59:21.515Z,2.50
2018-05-09T12:01:47.757Z,2.37
2018-05-09T12:04:14.075Z,2.80
2018-05-09T12:06:40.361Z,2.80
2018-05-09T12:09:06.718Z,2.80
2018-05-09T12:11:32.955Z,2.50
2018-05-09T12:13:59.208Z,2.70
2018-05-09T12:16:25.472Z,2.50
2018-05-09T12:18:51.745Z,2.60
2018-05-09T12:21:18.027Z,3.20
2018-05-09T12:23:44.258Z,2.93
2018-05-09T12:26:11.345Z,2.90
2018-05-09T12:28:38.452Z,3.20
2018-05-09T12:31:04.719Z,3.33
2018-05-09T12:33:31.031Z,2.97
2018-05-09T12:35:58.022Z,2.73
2018-05-09T12:38:24.315Z,2.97
2018-05-09T12:40:50.591Z,3.17
2018-05-09T12:43:16.866Z,3.00
2018-05-09T12:45:43.163Z,3.00
2018-05-09T12:48:09.436Z,3.13
2018-05-09T12:50:35.718Z,3.30
2018-05-09T12:53:02.728Z,4.00
2018-05-09T12:55:28.925Z,3.33
2018-05-09T12:57:55.596Z,3.17
2018-05-09T13:00:21.878Z,3.60
2018-05-09T13:02:48.197Z,3.30
2018-05-09T13:05:14.491Z,3.17
2018-05-09T13:07:41.517Z,2.60
2018-05-09T13:10:08.166Z,3.40
2018-05-09T13:12:34.449Z,3.30
2018-05-09T13:15:00.724Z,3.10
2018-05-09T13:17:27.008Z,2.97
2018-05-09T13:19:54.012Z,3.13
2018-05-09T13:22:20.276Z,3.30
2018-05-09T13:24:46.601Z,2.77
2018-05-09T13:27:12.856Z,2.83
2018-05-09T13:29:39.881Z,2.90
2018-05-09T13:32:06.268Z,2.90
2018-05-09T13:34:33.270Z,3.00
2018-05-09T13:36:59.565Z,2.80
2018-05-09T13:39:25.856Z,3.10
2018-05-09T13:41:52.151Z,2.90
2018-05-09T13:44:18.467Z,2.67
2018-05-09T13:46:44.762Z,2.90
2018-05-09T13:49:11.596Z,2.50
2018-05-09T13:51:38.592Z,2.77
2018-05-09T13:54:05.636Z,2.80
2018-05-09T13:56:32.652Z,2.83
2018-05-09T13:58:59.012Z,2.90
2018-05-09T14:01:25.341Z,2.47
2018-05-09T14:03:51.623Z,2.67
2018-05-09T14:06:18.825Z,2.60
2018-05-09T14:08:45.167Z,2.87
2018-05-09T14:11:12.227Z,3.10
2018-05-09T14:23:18.554Z,2.70
2018-05-09T14:25:44.873Z,2.63
2018-05-09T14:28:11.894Z,3.03
2018-05-09T14:30:38.232Z,2.73
2018-05-09T14:33:05.207Z,2.63
2018-05-09T14:35:32.256Z,1.97
2018-05-09T14:37:59.340Z,2.80
2018-05-09T14:40:25.588Z,2.60
2018-05-09T14:42:51.845Z,2.57
2018-05-09T14:45:18.151Z,2.50
2018-05-09T14:47:44.419Z,2.80
2018-05-09T14:50:10.752Z,1.87
2018-05-09T14:52:37.054Z,1.90
2018-05-09T14:55:03.311Z,2.40
2018-05-09T14:57:29.783Z,2.57
2018-05-09T14:59:56.053Z,2.30
2018-05-09T15:02:23.057Z,2.50
2018-05-09T15:04:49.333Z,2.80
2018-05-09T15:07:16.386Z,2.63
2018-05-09T15:09:43.414Z,2.27
2018-05-09T15:12:09.669Z,2.50
2018-05-09T15:14:36.977Z,2.77
2018-05-09T15:17:03.342Z,2.70
2018-05-09T15:19:29.953Z,3.50
2018-05-09T15:21:56.323Z,4.77
2018-05-09T15:24:22.838Z,5.80
2018-05-09T15:26:49.602Z,2.83
2018-05-09T15:29:15.901Z,5.13
2018-05-09T15:31:42.173Z,4.90
2018-05-09T15:34:08.486Z,2.47
2018-05-09T15:36:34.720Z,2.60
2018-05-09T15:39:01.163Z,2.80
2018-05-09T15:41:27.302Z,2.50
2018-05-09T15:43:53.892Z,2.60
2018-05-09T15:46:20.180Z,3.00
2018-05-09T15:48:47.389Z,3.00
2018-05-09T15:51:13.683Z,2.70
2018-05-09T15:53:39.964Z,3.10
2018-05-09T15:56:06.998Z,2.67
2018-05-09T15:58:33.347Z,2.50
2018-05-09T16:00:59.493Z,2.97
2018-05-09T16:03:26.482Z,2.70
2018-05-09T16:05:52.727Z,3.07
2018-05-09T16:08:19.013Z,2.70
2018-05-09T16:10:46.033Z,3.20
2018-05-09T16:13:12.363Z,3.13
2018-05-09T16:15:38.593Z,2.53
2018-05-09T16:18:04.848Z,2.90
2018-05-09T16:20:31.493Z,2.63
2018-05-09T16:22:57.792Z,2.87
2018-05-09T16:25:24.068Z,2.93
2018-05-09T16:27:50.350Z,2.90
2018-05-09T16:30:16.608Z,2.70
2018-05-09T16:32:42.826Z,3.33
2018-05-09T16:35:09.080Z,3.13
2018-05-09T16:37:35.322Z,2.67
2018-05-09T16:40:01.644Z,3.00
2018-05-09T16:42:27.914Z,2.70
2018-05-09T16:44:54.212Z,2.73
2018-05-09T16:47:20.509Z,2.60
2018-05-09T16:49:46.787Z,2.73
2018-05-09T16:52:13.023Z,2.50
2018-05-09T16:54:39.343Z,3.20
2018-05-09T16:57:05.622Z,2.50
2018-05-09T16:59:31.909Z,2.70
2018-05-09T17:01:58.925Z,2.67
2018-05-09T17:04:25.243Z,2.43
2018-05-09T17:06:51.491Z,3.30
2018-05-09T17:09:17.789Z,2.70
2018-05-09T17:11:44.792Z,3.07
2018-05-09T17:14:11.069Z,3.10
2018-05-09T17:16:38.090Z,2.90
2018-05-09T17:19:04.455Z,2.70
2018-05-09T17:21:43.621Z,2.27
2018-05-09T17:24:10.284Z,2.43
2018-05-09T17:26:36.553Z,2.70
2018-05-09T17:29:02.868Z,2.43
2018-05-09T17:31:29.118Z,2.73
2018-05-09T17:33:55.419Z,2.80
2018-05-09T17:36:22.401Z,2.83
2018-05-09T17:38:48.709Z,2.83
2018-05-09T17:41:14.993Z,2.90
2018-05-09T17:43:42.034Z,2.80
2018-05-09T17:46:08.290Z,2.73
2018-05-09T17:48:35.313Z,2.83
2018-05-09T17:51:01.539Z,2.80
2018-05-09T17:53:27.844Z,2.50
2018-05-09T17:55:54.108Z,3.00
2018-05-09T17:58:20.360Z,2.93
2018-05-09T18:00:46.631Z,2.60
2018-05-09T18:03:14.391Z,3.03
2018-05-09T18:05:41.444Z,2.90
2018-05-09T18:08:08.524Z,2.70
2018-05-09T18:10:34.875Z,2.77
2018-05-09T18:13:01.221Z,3.07
2018-05-09T18:15:27.550Z,2.90
2018-05-09T18:17:54.665Z,3.10
2018-05-09T18:20:21.712Z,3.13
2018-05-09T18:22:48.121Z,3.03
2018-05-09T18:25:14.482Z,3.47
2018-05-09T18:27:40.736Z,3.23
2018-05-09T18:30:07.795Z,3.00
2018-05-09T18:32:34.888Z,3.43
2018-05-09T18:35:01.281Z,3.63
2018-05-09T18:37:28.404Z,3.30
2018-05-09T18:39:55.431Z,3.20
2018-05-09T18:42:21.720Z,3.33
2018-05-09T18:44:48.808Z,3.13
2018-05-09T18:47:15.148Z,2.80
2018-05-09T18:49:41.454Z,2.80
2018-05-09T18:52:08.583Z,3.20
2018-05-09T18:54:34.808Z,3.13
2018-05-09T18:57:01.121Z,3.30
2018-05-09T18:59:28.591Z,3.17
2018-05-09T19:01:55.656Z,3.60
2018-05-09T19:04:21.979Z,3.17
2018-05-09T19:06:48.729Z,3.00
2018-05-09T19:09:14.989Z,3.27
2018-05-09T19:11:41.315Z,3.10
2018-05-09T19:14:07.634Z,3.70
2018-05-09T19:16:34.656Z,3.10
2018-05-09T19:19:01.740Z,3.40
2018-05-09T19:21:28.430Z,4.37
2018-05-09T19:23:54.679Z,4.23
2018-05-09T19:26:21.704Z,3.60
2018-05-09T19:28:48.031Z,3.70
2018-05-09T19:31:14.320Z,4.03
2018-05-09T19:33:41.339Z,3.77
2018-05-09T19:36:07.620Z,4.53
2018-05-09T19:38:33.939Z,4.10
2018-05-09T19:41:00.233Z,3.87
2018-05-09T19:43:26.513Z,4.00
2018-05-09T19:45:53.246Z,3.83
2018-05-09T19:48:19.543Z,3.87
2018-05-09T19:50:46.598Z,4.03
2018-05-09T19:53:14.675Z,3.87
2018-05-09T19:55:42.416Z,4.07
2018-05-09T19:58:09.874Z,4.57
2018-05-09T20:00:37.173Z,4.10
2018-05-09T20:03:04.055Z,3.93
2018-05-09T20:05:30.348Z,4.47
2018-05-09T20:07:56.622Z,4.30
2018-05-09T20:10:22.929Z,4.50
2018-05-09T20:12:49.251Z,4.10
2018-05-09T20:15:15.877Z,3.87
2018-05-09T20:17:44.554Z,3.80
2018-05-09T20:20:11.631Z,3.80
2018-05-09T20:22:38.856Z,3.60
2018-05-09T20:25:05.669Z,3.30
2018-05-09T20:27:31.943Z,4.20
2018-05-09T20:30:00.075Z,3.63
2018-05-09T20:32:38.913Z,4.00
2018-05-09T20:35:05.645Z,3.70
2018-05-09T20:37:32.335Z,3.63
2018-05-09T20:39:58.960Z,3.60
2018-05-09T20:42:26.071Z,3.43
2018-05-09T20:44:52.353Z,4.00
2018-05-09T20:47:18.714Z,4.00
2018-05-09T20:49:45.695Z,3.97
2018-05-09T20:52:11.999Z,3.67
2018-05-09T20:54:39.659Z,3.73
2018-05-09T20:57:06.399Z,4.23
2018-05-09T20:59:32.715Z,5.10
2018-05-09T21:01:59.045Z,4.20
2018-05-09T21:04:25.503Z,4.67
2018-05-09T21:06:52.153Z,4.23
2018-05-09T21:09:18.809Z,4.17
2018-05-09T21:12:07.873Z,4.43
2018-05-09T21:14:34.095Z,5.67
2018-05-09T21:17:00.344Z,6.17
2018-05-09T21:19:26.621Z,6.53
2018-05-09T21:21:52.878Z,8.17
2018-05-09T21:24:19.525Z,12.63
2018-05-09T21:26:45.768Z,11.67
2018-05-09T21:29:12.159Z,10.07
2018-05-09T21:31:38.424Z,7.97
2018-05-09T21:34:04.758Z,8.70
2018-05-09T21:36:31.129Z,6.87
2018-05-09T21:38:57.775Z,6.17
2018-05-09T21:41:24.042Z,5.90
2018-05-09T21:43:51.065Z,6.10
2018-05-09T21:46:17.383Z,6.93
2018-05-09T21:48:43.649Z,6.00
2018-05-09T21:51:09.965Z,6.40
2018-05-09T21:53:36.208Z,6.27
2018-05-09T21:56:02.920Z,6.20
2018-05-09T21:58:29.153Z,6.67
2018-05-09T22:00:55.496Z,5.80
2018-05-09T22:03:22.885Z,6.83
2018-05-09T22:05:49.201Z,6.40
2018-05-09T22:08:15.441Z,5.77
2018-05-09T22:10:41.713Z,5.70
2018-05-09T22:13:08.780Z,5.93
2018-05-09T22:15:35.864Z,5.67
2018-05-09T22:18:02.106Z,5.03
2018-05-09T22:20:28.388Z,5.27
2018-05-09T22:22:54.668Z,6.10
2018-05-09T22:25:20.893Z,7.90
2018-05-09T22:27:47.204Z,5.93
2018-05-09T22:30:13.842Z,6.10
2018-05-09T22:32:40.535Z,6.20
2018-05-09T22:35:06.780Z,5.80
2018-05-09T22:37:33.036Z,6.03
2018-05-09T22:39:59.287Z,6.20
2018-05-09T22:42:25.544Z,6.97
2018-05-09T22:44:52.575Z,6.37
2018-05-09T22:47:18.806Z,6.63
2018-05-09T22:49:45.820Z,6.80
2018-05-09T22:52:12.144Z,6.13
2018-05-09T22:54:38.385Z,7.20
2018-05-09T22:57:04.653Z,5.50
2018-05-09T22:59:30.926Z,4.67
2018-05-09T23:01:57.179Z,5.43
2018-05-09T23:04:24.206Z,6.30
2018-05-09T23:06:50.469Z,5.50
2018-05-09T23:09:17.449Z,5.40
2018-05-09T23:11:44.494Z,5.53
2018-05-09T23:14:10.810Z,5.87
2018-05-09T23:16:37.808Z,5.30
2018-05-09T23:19:04.430Z,5.77
2018-05-09T23:21:30.754Z,6.20
2018-05-09T23:23:57.026Z,4.83
2018-05-09T23:26:23.273Z,5.80
2018-05-09T23:28:49.524Z,5.73
2018-05-09T23:31:15.769Z,6.03
2018-05-09T23:33:42.770Z,5.47
2018-05-09T23:36:09.030Z,5.50
2018-05-09T23:38:35.315Z,5.10
2018-05-09T23:41:02.304Z,5.30
2018-05-09T23:43:28.624Z,6.00
2018-05-09T23:45:54.909Z,5.63
2018-05-09T23:48:21.243Z,6.30
2018-05-09T23:50:47.549Z,6.50
2018-05-09T23:53:13.819Z,5.70
2018-05-09T23:55:40.212Z,5.77
2018-05-09T23:58:06.395Z,5.60
